Barry Lakes, New Jersey
Current Conditions -  °F | °C
As of 6:53 PM on Friday 24 Oct 2014 (Local Time) from KFWN Reporting Station
Clear Clear  
Wind Chill: 63°   Ceiling: Unl
Heat Index: 63°   Visibility: 10mi
Dew Point: 40°   Wind: 3mph
Humidity: 43%   Direction: 330°NNW
Pressure: 29.81"   Gusts: NA
Location:  41.189°N, 74.4273°W
Report Text: KFWN 242253Z AUTO 33003KT 10SM CLR 17/04 A2981 RMK AO2 SLP094 T01720044
Loading
Personal Weather Stations






























Interactive Weather Map
Tropical Storm Tracking
New forecast layout! Learn more

10-Day Weather Forecast

Advertisements
Track Severe Weather on mobile